createdAt,value
2023-05-21T00:00:02.039Z,1.00
2023-05-21T00:02:30.215Z,1.00
2023-05-21T00:05:05.058Z,99.90
2023-05-21T00:07:38.941Z,1.00
2023-05-21T00:10:18.822Z,1.00
2023-05-21T00:12:52.851Z,1.00
2023-05-21T00:15:26.795Z,1.00
2023-05-21T00:17:54.031Z,1.00
2023-05-21T00:20:28.899Z,12.80
2023-05-21T00:23:03.857Z,99.90
2023-05-21T00:25:37.930Z,99.90
2023-05-21T00:28:05.548Z,99.90
2023-05-21T00:30:38.825Z,1.00
2023-05-21T00:33:06.002Z,99.90
2023-05-21T00:35:39.793Z,99.90
2023-05-21T00:38:07.611Z,99.90
2023-05-21T00:40:47.850Z,99.90
2023-05-21T00:43:21.771Z,1.00
2023-05-21T00:45:48.854Z,1.00
2023-05-21T00:48:22.803Z,1.00
2023-05-21T00:50:50.595Z,1.00
2023-05-21T00:53:25.834Z,1.00
2023-05-21T00:55:53.367Z,1.00
2023-05-21T00:58:26.858Z,1.00
2023-05-21T01:00:57.049Z,1.00
2023-05-21T01:03:24.442Z,1.00
2023-05-21T01:05:59.861Z,1.00
2023-05-21T01:08:41.836Z,1.00
2023-05-21T01:11:17.998Z,1.00
2023-05-21T01:13:53.856Z,1.00
2023-05-21T01:16:27.892Z,1.00
2023-05-21T01:19:01.891Z,1.00
2023-05-21T01:21:37.981Z,1.00
2023-05-21T01:24:08.544Z,1.00
2023-05-21T01:26:45.863Z,1.00
2023-05-21T01:29:14.741Z,49.50
2023-05-21T01:32:30.015Z,80.60
2023-05-21T01:35:21.773Z,99.90
2023-05-21T01:38:04.851Z,99.90
2023-05-21T01:41:10.848Z,99.90
2023-05-21T01:43:48.849Z,99.90
2023-05-21T01:46:28.916Z,99.90
2023-05-21T01:49:03.794Z,99.90
2023-05-21T01:51:31.311Z,99.90
2023-05-21T01:53:58.655Z,1.00
2023-05-21T01:56:32.822Z,10.70
2023-05-21T01:59:06.838Z,1.00
2023-05-21T02:01:34.464Z,1.00
2023-05-21T02:04:08.950Z,1.00
2023-05-21T02:06:43.808Z,99.90
2023-05-21T02:09:23.890Z,99.90
2023-05-21T02:11:57.846Z,99.90
2023-05-21T02:14:31.841Z,99.90
2023-05-21T02:16:59.661Z,99.90
2023-05-21T02:19:33.987Z,99.90
2023-05-21T02:22:07.833Z,99.90
2023-05-21T02:24:42.062Z,1.00
2023-05-21T02:27:10.771Z,1.00
2023-05-21T02:29:44.856Z,18.60
2023-05-21T02:32:18.844Z,1.00
2023-05-21T02:34:47.482Z,1.00
2023-05-21T02:37:20.856Z,1.00
2023-05-21T02:39:47.921Z,1.00
2023-05-21T02:42:21.902Z,1.00
2023-05-21T02:44:49.798Z,1.00
2023-05-21T02:47:23.915Z,1.00
2023-05-21T02:49:53.131Z,1.00
2023-05-21T02:52:30.908Z,28.00
2023-05-21T02:54:58.026Z,45.50
2023-05-21T02:57:31.825Z,19.00
2023-05-21T02:59:58.959Z,28.20
2023-05-21T03:02:32.950Z,42.00
2023-05-21T03:05:00.886Z,65.10
2023-05-21T03:07:41.813Z,1.00
2023-05-21T03:10:09.425Z,1.00
2023-05-21T03:12:42.878Z,1.00
2023-05-21T03:15:17.845Z,1.00
2023-05-21T03:17:52.023Z,1.00
2023-05-21T03:20:25.816Z,1.00
2023-05-21T03:22:53.070Z,1.00
2023-05-21T03:25:26.877Z,99.90
2023-05-21T03:28:00.957Z,1.00
2023-05-21T03:30:28.270Z,1.00
2023-05-21T03:32:56.553Z,1.00
2023-05-21T03:35:29.912Z,1.00
2023-05-21T03:37:57.017Z,1.00
2023-05-21T03:40:30.862Z,1.00
2023-05-21T03:42:57.975Z,7.00
2023-05-21T03:45:25.048Z,1.00
2023-05-21T03:47:58.939Z,99.90
2023-05-21T03:50:32.852Z,1.00
2023-05-21T03:53:06.839Z,1.00
2023-05-21T03:55:40.848Z,13.10
2023-05-21T03:58:20.864Z,49.30
2023-05-21T04:00:48.479Z,99.90
2023-05-21T04:03:16.236Z,99.90
2023-05-21T04:05:49.879Z,99.90
2023-05-21T04:08:23.570Z,99.90
2023-05-21T04:10:56.915Z,99.90
2023-05-21T04:13:24.013Z,99.90
2023-05-21T04:15:57.860Z,99.90
2023-05-21T04:18:26.164Z,99.90
2023-05-21T04:21:01.134Z,99.90
2023-05-21T04:23:34.860Z,99.90
2023-05-21T04:26:08.907Z,99.90
2023-05-21T04:28:43.838Z,1.00
2023-05-21T04:31:13.901Z,99.90
2023-05-21T04:33:49.148Z,99.90
2023-05-21T04:36:17.493Z,99.90
2023-05-21T04:38:51.849Z,79.30
2023-05-21T04:41:19.197Z,33.90
2023-05-21T04:43:52.917Z,1.00
2023-05-21T04:46:27.000Z,1.00
2023-05-21T04:49:04.949Z,1.00
2023-05-21T04:51:38.909Z,1.00
2023-05-21T04:54:06.511Z,1.00
2023-05-21T04:56:39.882Z,99.90
2023-05-21T04:59:07.160Z,99.90
2023-05-21T05:01:41.882Z,99.90
2023-05-21T05:04:09.767Z,1.00
2023-05-21T05:06:43.873Z,1.00
2023-05-21T05:09:24.926Z,1.00
2023-05-21T05:11:52.256Z,1.00
2023-05-21T05:14:25.877Z,99.90
2023-05-21T05:16:54.630Z,99.90
2023-05-21T05:19:29.068Z,1.00
2023-05-21T05:22:02.939Z,1.00
2023-05-21T05:24:36.903Z,1.00
2023-05-21T05:27:10.892Z,99.90
2023-05-21T05:29:44.853Z,1.00
2023-05-21T05:32:19.016Z,1.00
2023-05-21T05:34:47.129Z,99.90
2023-05-21T05:37:14.528Z,99.90
2023-05-21T05:39:48.972Z,99.90
2023-05-21T05:42:16.225Z,99.90
2023-05-21T05:44:49.921Z,87.10
2023-05-21T05:47:17.601Z,66.80
2023-05-21T05:49:52.147Z,1.00
2023-05-21T05:52:19.363Z,99.90
2023-05-21T05:54:53.899Z,99.90
2023-05-21T05:57:28.042Z,99.90
2023-05-21T06:00:02.057Z,99.90
2023-05-21T06:02:29.286Z,99.90
2023-05-21T06:05:02.929Z,99.90
2023-05-21T06:07:37.893Z,99.90
2023-05-21T06:10:15.935Z,1.00
2023-05-21T06:12:49.885Z,1.00
2023-05-21T06:15:23.890Z,99.90
2023-05-21T06:17:51.057Z,1.00
2023-05-21T06:20:24.876Z,99.90
2023-05-21T06:22:52.003Z,99.90
2023-05-21T06:25:25.967Z,99.90
2023-05-21T06:27:53.184Z,1.00
2023-05-21T06:30:26.924Z,1.00
2023-05-21T06:32:54.099Z,99.90
2023-05-21T06:35:28.994Z,99.90
2023-05-21T06:37:57.465Z,1.00
2023-05-21T06:40:30.899Z,1.00
2023-05-21T06:43:00.024Z,99.90
2023-05-21T06:45:33.974Z,99.90
2023-05-21T06:48:07.995Z,99.90
2023-05-21T06:50:41.970Z,99.90
2023-05-21T06:53:15.885Z,1.00
2023-05-21T06:55:52.929Z,1.00
2023-05-21T06:58:20.038Z,1.00
2023-05-21T07:00:53.973Z,1.00
2023-05-21T07:03:21.202Z,1.00
2023-05-21T07:05:54.938Z,1.00
2023-05-21T07:08:28.590Z,1.00
2023-05-21T07:11:02.926Z,1.00
2023-05-21T07:13:30.935Z,1.00
2023-05-21T07:15:58.016Z,1.00
2023-05-21T07:18:32.139Z,1.00
2023-05-21T07:21:06.867Z,1.00
2023-05-21T07:23:40.900Z,1.00
2023-05-21T07:26:10.768Z,1.00
2023-05-21T07:28:45.978Z,1.00
2023-05-21T07:31:13.262Z,8.70
2023-05-21T07:33:40.397Z,1.00
2023-05-21T07:36:13.954Z,1.00
2023-05-21T07:38:47.889Z,1.00
2023-05-21T07:41:23.208Z,1.00
2023-05-21T07:43:57.901Z,1.00
2023-05-21T07:46:31.994Z,1.00
2023-05-21T07:49:07.159Z,1.00
2023-05-21T07:51:41.000Z,1.00
2023-05-21T07:54:20.986Z,1.00
2023-05-21T07:56:57.113Z,1.00
2023-05-21T07:59:33.037Z,1.00
2023-05-21T08:02:01.031Z,1.00
2023-05-21T08:04:37.006Z,1.00
2023-05-21T08:07:13.065Z,1.00
2023-05-21T08:09:56.997Z,1.00
2023-05-21T08:12:24.469Z,4.10
2023-05-21T08:14:57.976Z,1.00
2023-05-21T08:17:26.995Z,1.00
2023-05-21T08:20:01.013Z,1.70
2023-05-21T08:22:35.941Z,33.20
2023-05-21T08:25:10.963Z,16.50
2023-05-21T08:27:44.988Z,57.80
2023-05-21T08:30:19.017Z,45.70
2023-05-21T08:32:55.461Z,42.70
2023-05-21T08:35:22.690Z,9.40
2023-05-21T08:37:57.089Z,15.00
2023-05-21T08:40:24.412Z,22.90
2023-05-21T08:42:58.936Z,1.00
2023-05-21T08:45:27.728Z,1.00
2023-05-21T08:48:04.031Z,1.00
2023-05-21T08:50:32.801Z,1.00
2023-05-21T08:53:15.997Z,1.00
2023-05-21T08:56:04.966Z,32.80
2023-05-21T08:58:39.956Z,36.40
2023-05-21T09:01:15.024Z,58.80
2023-05-21T09:03:49.959Z,67.90
2023-05-21T09:06:23.974Z,75.20
2023-05-21T09:09:15.927Z,51.70
2023-05-21T09:11:50.004Z,99.90
2023-05-21T09:14:18.801Z,49.80
2023-05-21T09:16:55.032Z,99.90
2023-05-21T09:19:22.647Z,89.00
2023-05-21T09:21:59.067Z,99.90
2023-05-21T09:24:35.853Z,99.90
2023-05-21T09:27:14.025Z,99.90
2023-05-21T09:29:42.686Z,99.90
2023-05-21T09:32:16.952Z,99.90
2023-05-21T09:34:45.049Z,5.50
2023-05-21T09:37:27.011Z,65.30
2023-05-21T09:39:54.862Z,24.00
2023-05-21T09:42:30.057Z,23.10
2023-05-21T09:44:58.047Z,99.90
2023-05-21T09:47:32.051Z,75.90
2023-05-21T09:50:06.013Z,32.50
2023-05-21T09:52:43.022Z,2.40
2023-05-21T09:55:15.040Z,42.70
2023-05-21T09:57:56.991Z,92.30
2023-05-21T10:00:35.142Z,99.90
2023-05-21T10:03:20.386Z,99.90
2023-05-21T10:05:47.585Z,99.90
2023-05-21T10:08:33.980Z,99.90
2023-05-21T10:11:16.990Z,22.20
2023-05-21T10:14:01.004Z,77.60
2023-05-21T10:16:37.132Z,4.10
2023-05-21T10:19:06.104Z,23.50
2023-05-21T10:21:33.742Z,78.10
2023-05-21T10:24:10.966Z,35.00
2023-05-21T10:26:41.470Z,1.00
2023-05-21T10:29:19.346Z,12.10
2023-05-21T10:31:50.033Z,59.60
2023-05-21T10:34:23.997Z,5.20
2023-05-21T10:36:59.999Z,16.80
2023-05-21T10:39:34.040Z,18.70
2023-05-21T10:42:12.697Z,4.10
2023-05-21T10:45:11.063Z,23.10
2023-05-21T10:48:15.084Z,31.20
2023-05-21T10:51:21.002Z,27.40
2023-05-21T10:54:55.353Z,46.50
2023-05-21T10:57:58.241Z,45.70
2023-05-21T11:00:27.604Z,53.70
2023-05-21T11:02:55.116Z,68.60
2023-05-21T11:05:58.025Z,41.50
2023-05-21T11:08:40.967Z,33.90
2023-05-21T11:11:53.471Z,17.40
2023-05-21T11:14:43.091Z,1.00
2023-05-21T11:17:23.039Z,3.20
2023-05-21T11:19:59.024Z,1.00
2023-05-21T11:22:27.773Z,11.60
2023-05-21T11:25:08.992Z,3.40
2023-05-21T11:27:42.932Z,28.30
2023-05-21T11:30:25.201Z,1.00
2023-05-21T11:33:15.815Z,9.90
2023-05-21T11:35:52.019Z,1.00
2023-05-21T11:38:27.041Z,1.00
2023-05-21T11:40:55.660Z,1.00
2023-05-21T11:43:30.172Z,1.00
2023-05-21T11:45:58.206Z,1.00
2023-05-21T11:48:34.011Z,1.00
2023-05-21T11:51:02.323Z,1.00
2023-05-21T11:53:37.065Z,1.00
2023-05-21T11:56:09.923Z,1.00
2023-05-21T11:58:43.011Z,1.00
2023-05-21T12:01:31.048Z,1.00
2023-05-21T12:03:58.220Z,1.00
2023-05-21T12:06:28.538Z,1.00
2023-05-21T12:09:06.059Z,99.90
2023-05-21T12:11:33.292Z,1.00
2023-05-21T12:14:07.020Z,1.00
2023-05-21T12:16:34.539Z,1.00
2023-05-21T12:19:10.052Z,1.00
2023-05-21T12:21:44.036Z,1.00
2023-05-21T12:24:19.222Z,99.90
2023-05-21T12:26:53.024Z,1.00
2023-05-21T12:29:28.045Z,1.00
2023-05-21T12:31:59.770Z,1.00
2023-05-21T12:34:58.176Z,1.00
2023-05-21T12:37:35.482Z,1.00
2023-05-21T12:40:18.080Z,1.00
2023-05-21T12:42:52.103Z,1.00
2023-05-21T12:45:28.017Z,1.00
2023-05-21T12:48:03.142Z,99.90
2023-05-21T12:50:33.223Z,1.00
2023-05-21T12:53:07.022Z,1.00
2023-05-21T12:55:42.056Z,1.00
2023-05-21T12:58:20.010Z,1.00
2023-05-21T13:00:54.265Z,1.00
2023-05-21T13:03:24.195Z,1.00
2023-05-21T13:06:09.086Z,1.00
2023-05-21T13:08:43.152Z,1.00
2023-05-21T13:11:23.318Z,1.00
2023-05-21T13:13:50.447Z,1.00
2023-05-21T13:16:24.153Z,1.00
2023-05-21T13:18:51.255Z,1.00
2023-05-21T13:21:25.047Z,1.00
2023-05-21T13:23:56.699Z,1.00
2023-05-21T13:26:23.791Z,1.00
2023-05-21T13:28:58.071Z,1.00
2023-05-21T13:31:26.118Z,1.00
2023-05-21T13:34:02.028Z,1.00
2023-05-21T13:36:29.167Z,1.00
2023-05-21T13:39:04.050Z,1.00
2023-05-21T13:41:38.054Z,1.00
2023-05-21T13:44:05.523Z,1.00
2023-05-21T13:46:39.153Z,1.00
2023-05-21T13:49:06.663Z,1.00
2023-05-21T13:51:40.040Z,1.00
2023-05-21T13:54:07.107Z,1.00
2023-05-21T13:56:41.065Z,1.00
2023-05-21T13:59:08.222Z,1.00
2023-05-21T14:01:42.058Z,1.00
2023-05-21T14:04:09.224Z,1.00
2023-05-21T14:06:36.587Z,1.00
2023-05-21T14:09:11.063Z,1.00
2023-05-21T14:11:38.573Z,1.00
2023-05-21T14:14:13.188Z,1.00
2023-05-21T14:16:40.326Z,1.00
2023-05-21T14:19:14.130Z,1.00
2023-05-21T14:21:41.750Z,1.00
2023-05-21T14:24:17.089Z,1.00
2023-05-21T14:26:44.142Z,1.00
2023-05-21T14:29:25.060Z,1.00
2023-05-21T14:32:15.168Z,1.00
2023-05-21T14:34:56.066Z,1.00
2023-05-21T14:37:23.371Z,1.00
2023-05-21T14:39:57.151Z,1.00
2023-05-21T14:42:24.303Z,1.00
2023-05-21T14:44:58.952Z,1.00
2023-05-21T14:47:33.077Z,1.00
2023-05-21T14:50:07.128Z,1.00
2023-05-21T14:52:35.412Z,99.90
2023-05-21T14:55:09.136Z,99.90
2023-05-21T14:57:36.366Z,1.00
2023-05-21T15:00:12.084Z,1.00
2023-05-21T15:02:39.716Z,1.00
2023-05-21T15:05:14.284Z,1.00
2023-05-21T15:07:41.335Z,1.00
2023-05-21T15:10:21.126Z,1.00
2023-05-21T15:12:48.321Z,1.00
2023-05-21T15:15:24.114Z,1.00
2023-05-21T15:17:51.351Z,1.00
2023-05-21T15:20:26.131Z,1.00
2023-05-21T15:23:08.502Z,1.00
2023-05-21T15:25:46.176Z,1.00
2023-05-21T15:28:14.670Z,1.00
2023-05-21T15:30:48.090Z,1.00
2023-05-21T15:33:16.166Z,1.00
2023-05-21T15:35:50.149Z,1.00
2023-05-21T15:38:17.553Z,1.00
2023-05-21T15:40:52.106Z,1.00
2023-05-21T15:43:19.223Z,1.00
2023-05-21T15:45:53.305Z,1.00
2023-05-21T15:48:29.132Z,1.00
2023-05-21T15:50:56.557Z,1.00
2023-05-21T15:53:31.100Z,1.00
2023-05-21T15:56:00.396Z,1.00
2023-05-21T15:58:34.156Z,1.00
2023-05-21T16:01:09.138Z,1.00
2023-05-21T16:03:43.280Z,1.00
2023-05-21T16:06:17.117Z,1.00
2023-05-21T16:08:52.158Z,1.00
2023-05-21T16:11:34.099Z,1.00
2023-05-21T16:14:08.085Z,1.00
2023-05-21T16:16:37.707Z,1.00
2023-05-21T16:19:13.489Z,1.00
2023-05-21T16:21:42.250Z,1.00
2023-05-21T16:24:16.179Z,1.00
2023-05-21T16:26:44.109Z,1.00
2023-05-21T16:29:18.123Z,1.00
2023-05-21T16:31:52.237Z,1.00
2023-05-21T16:34:26.075Z,1.00
2023-05-21T16:36:54.220Z,1.00
2023-05-21T16:39:28.100Z,1.00
2023-05-21T16:42:01.367Z,1.00
2023-05-21T16:44:36.231Z,1.00
2023-05-21T16:47:04.560Z,1.00
2023-05-21T16:49:38.137Z,1.00
2023-05-21T16:52:05.735Z,1.00
2023-05-21T16:54:40.109Z,1.00
2023-05-21T16:57:07.546Z,1.00
2023-05-21T16:59:41.189Z,1.00
2023-05-21T17:02:12.083Z,1.00
2023-05-21T17:04:46.146Z,1.00
2023-05-21T17:07:13.200Z,1.00
2023-05-21T17:09:54.181Z,1.00
2023-05-21T17:12:28.132Z,1.00
2023-05-21T17:15:02.134Z,1.00
2023-05-21T17:17:29.406Z,1.00
2023-05-21T17:20:03.169Z,1.00
2023-05-21T17:22:37.212Z,1.00
2023-05-21T17:25:11.116Z,1.00
2023-05-21T17:27:38.247Z,1.00
2023-05-21T17:30:13.115Z,1.00
2023-05-21T17:32:40.159Z,1.00
2023-05-21T17:35:15.180Z,1.00
2023-05-21T17:37:42.329Z,1.00
2023-05-21T17:40:09.976Z,1.00
2023-05-21T17:42:44.184Z,1.00
2023-05-21T17:45:18.172Z,50.00
2023-05-21T17:47:45.352Z,33.20
2023-05-21T17:50:19.145Z,14.20
2023-05-21T17:52:46.255Z,41.30
2023-05-21T17:55:21.115Z,67.90
2023-05-21T17:57:48.293Z,94.00
2023-05-21T18:00:22.458Z,70.20
2023-05-21T18:02:49.689Z,16.90
2023-05-21T18:05:23.133Z,1.00
2023-05-21T18:07:50.524Z,5.70
2023-05-21T18:10:30.267Z,13.20
2023-05-21T18:12:57.465Z,19.70
2023-05-21T18:15:31.430Z,99.90
2023-05-21T18:17:58.693Z,81.50
2023-05-21T18:20:32.165Z,2.30
2023-05-21T18:22:59.276Z,6.80
2023-05-21T18:25:33.152Z,3.70
2023-05-21T18:28:01.601Z,1.80
2023-05-21T18:30:35.466Z,42.00
2023-05-21T18:33:04.159Z,67.30
2023-05-21T18:35:45.537Z,98.80
2023-05-21T18:38:13.313Z,99.90
2023-05-21T18:40:47.127Z,99.90
2023-05-21T18:43:14.674Z,99.90
2023-05-21T18:45:49.369Z,99.90
2023-05-21T18:48:24.187Z,99.90
2023-05-21T18:50:58.140Z,99.90
2023-05-21T18:53:25.238Z,99.90
2023-05-21T18:55:59.130Z,99.90
2023-05-21T18:58:33.377Z,99.90
2023-05-21T19:01:08.210Z,99.90
2023-05-21T19:03:35.290Z,99.90
2023-05-21T19:06:09.173Z,99.90
2023-05-21T19:08:46.283Z,99.90
2023-05-21T19:11:29.189Z,99.90
2023-05-21T19:14:03.162Z,99.90
2023-05-21T19:16:37.290Z,99.90
2023-05-21T19:19:11.228Z,99.90
2023-05-21T19:21:39.596Z,99.90
2023-05-21T19:24:14.180Z,99.90
2023-05-21T19:26:49.543Z,99.90
2023-05-21T19:29:23.129Z,99.90
2023-05-21T19:31:57.182Z,99.90
2023-05-21T19:34:24.304Z,99.90
2023-05-21T19:36:58.199Z,99.90
2023-05-21T19:39:25.450Z,99.90
2023-05-21T19:41:59.261Z,99.90
2023-05-21T19:44:33.186Z,99.90
2023-05-21T19:47:08.179Z,99.90
2023-05-21T19:49:42.166Z,1.00
2023-05-21T19:52:10.676Z,1.00
2023-05-21T19:54:44.369Z,1.00
2023-05-21T19:57:13.404Z,1.00
2023-05-21T19:59:48.216Z,1.00
2023-05-21T20:02:17.153Z,1.00
2023-05-21T20:04:51.275Z,1.00
2023-05-21T20:07:18.386Z,1.00
2023-05-21T20:09:54.195Z,1.00
2023-05-21T20:12:22.322Z,1.00
2023-05-21T20:14:56.169Z,1.00
2023-05-21T20:17:31.293Z,1.00
2023-05-21T20:20:07.151Z,1.00
2023-05-21T20:22:40.221Z,1.00
2023-05-21T20:25:15.356Z,1.00
2023-05-21T20:27:49.205Z,1.00
2023-05-21T20:30:16.388Z,1.00
2023-05-21T20:32:50.201Z,99.90
2023-05-21T20:35:24.156Z,99.90
2023-05-21T20:37:59.206Z,99.90
2023-05-21T20:40:27.479Z,99.90
2023-05-21T20:43:01.189Z,99.90
2023-05-21T20:45:29.934Z,99.90
2023-05-21T20:48:05.314Z,99.90
2023-05-21T20:50:41.315Z,99.90
2023-05-21T20:53:15.234Z,99.90
2023-05-21T20:55:44.508Z,99.90
2023-05-21T20:58:18.224Z,99.90
2023-05-21T21:00:48.587Z,99.90
2023-05-21T21:03:24.560Z,99.90
2023-05-21T21:05:52.910Z,99.90
2023-05-21T21:08:27.452Z,99.90
2023-05-21T21:11:08.282Z,99.90
2023-05-21T21:13:43.246Z,99.90
2023-05-21T21:16:17.263Z,99.90
2023-05-21T21:18:53.221Z,99.90
2023-05-21T21:21:27.193Z,99.90
2023-05-21T21:24:01.204Z,99.90
2023-05-21T21:26:28.424Z,99.90
2023-05-21T21:29:03.200Z,99.90
2023-05-21T21:31:30.747Z,99.90
2023-05-21T21:34:04.354Z,99.90
2023-05-21T21:36:31.572Z,99.90
2023-05-21T21:39:07.216Z,99.90
2023-05-21T21:41:41.204Z,99.90
2023-05-21T21:44:08.314Z,99.90
2023-05-21T21:46:44.221Z,99.90
2023-05-21T21:49:11.322Z,99.90
2023-05-21T21:51:46.178Z,99.90
2023-05-21T21:54:20.256Z,99.90
2023-05-21T21:56:48.596Z,99.90
2023-05-21T21:59:22.225Z,99.90
2023-05-21T22:01:49.498Z,99.90
2023-05-21T22:04:24.281Z,99.90
2023-05-21T22:07:00.176Z,99.90
2023-05-21T22:09:41.239Z,99.90
2023-05-21T22:12:15.239Z,99.90
2023-05-21T22:14:43.858Z,99.90
2023-05-21T22:17:17.503Z,99.90
2023-05-21T22:19:51.219Z,99.90
2023-05-21T22:22:25.336Z,99.90
2023-05-21T22:24:55.307Z,99.90
2023-05-21T22:27:30.231Z,99.90
2023-05-21T22:29:57.435Z,99.90
2023-05-21T22:32:31.307Z,99.90
2023-05-21T22:34:59.608Z,1.00
2023-05-21T22:37:33.203Z,1.00
2023-05-21T22:40:07.251Z,1.00
2023-05-21T22:42:35.562Z,1.00
2023-05-21T22:45:12.663Z,1.00
2023-05-21T22:47:46.307Z,1.00
2023-05-21T22:50:20.197Z,1.00
2023-05-21T22:52:47.373Z,1.00
2023-05-21T22:55:23.263Z,1.00
2023-05-21T22:57:52.973Z,1.00
2023-05-21T23:00:28.437Z,1.00
2023-05-21T23:02:55.806Z,42.50
2023-05-21T23:05:29.242Z,1.00
2023-05-21T23:08:03.206Z,1.00
2023-05-21T23:10:43.243Z,1.00
2023-05-21T23:13:17.218Z,1.00
2023-05-21T23:15:51.530Z,1.00
2023-05-21T23:18:19.001Z,1.00
2023-05-21T23:20:55.316Z,1.00
2023-05-21T23:23:22.396Z,1.00
2023-05-21T23:25:57.255Z,13.50
2023-05-21T23:28:24.568Z,48.60
2023-05-21T23:30:54.404Z,99.90
2023-05-21T23:33:28.270Z,99.90
2023-05-21T23:35:55.535Z,99.90
2023-05-21T23:38:31.282Z,99.90
2023-05-21T23:40:58.381Z,99.90
2023-05-21T23:43:32.301Z,99.90
2023-05-21T23:46:06.349Z,99.90
2023-05-21T23:48:40.746Z,63.70
2023-05-21T23:51:15.262Z,1.00
2023-05-21T23:53:49.506Z,1.00
2023-05-21T23:56:23.213Z,1.00
2023-05-21T23:58:53.230Z,1.00
